createdAt,value
2024-04-09T00:02:05.615Z,94941.59
2024-04-09T00:04:32.899Z,94929.13
2024-04-09T00:07:00.185Z,94934.28
2024-04-09T00:09:30.683Z,94934.50
2024-04-09T00:11:59.870Z,94937.19
2024-04-09T00:14:27.026Z,94931.59
2024-04-09T00:16:57.240Z,94925.22
2024-04-09T00:19:25.876Z,94929.00
2024-04-09T00:21:53.544Z,94928.50
2024-04-09T00:24:20.727Z,94924.22
2024-04-09T00:26:48.178Z,94923.13
2024-04-09T00:29:15.572Z,94914.13
2024-04-09T00:31:42.632Z,94919.31
2024-04-09T00:34:12.049Z,94925.81
2024-04-09T00:36:39.655Z,94926.03
2024-04-09T00:39:20.222Z,94912.25
2024-04-09T00:41:48.546Z,94920.69
2024-04-09T00:44:15.810Z,94923.00
2024-04-09T00:46:44.387Z,94928.47
2024-04-09T00:49:15.299Z,94926.41
2024-04-09T00:51:46.379Z,94925.00
2024-04-09T00:54:13.981Z,94926.78
2024-04-09T00:56:42.007Z,94931.78
2024-04-09T00:59:10.802Z,94928.78
2024-04-09T01:01:37.927Z,94924.59
2024-04-09T01:04:05.102Z,94927.38
2024-04-09T01:06:32.884Z,94927.19
2024-04-09T01:09:00.509Z,94930.19
2024-04-09T01:11:27.668Z,94926.66
2024-04-09T01:13:54.692Z,94930.75
2024-04-09T01:16:22.990Z,94919.19
2024-04-09T01:18:50.388Z,94926.88
2024-04-09T01:21:17.599Z,94925.28
2024-04-09T01:23:44.717Z,94922.09
2024-04-09T01:26:11.782Z,94924.38
2024-04-09T01:28:40.998Z,94923.53
2024-04-09T01:31:13.433Z,94918.94
2024-04-09T01:33:41.068Z,94919.28
2024-04-09T01:36:11.605Z,94912.31
2024-04-09T01:38:39.629Z,94930.84
2024-04-09T01:41:06.757Z,94924.91
2024-04-09T01:43:33.863Z,94917.84
2024-04-09T01:46:00.953Z,94917.34
2024-04-09T01:48:28.207Z,94913.09
2024-04-09T01:50:55.352Z,94917.47
2024-04-09T01:53:23.601Z,94914.28
2024-04-09T01:56:00.233Z,94911.09
2024-04-09T01:58:27.333Z,94903.91
2024-04-09T02:00:54.549Z,94909.09
2024-04-09T02:03:22.445Z,94911.28
2024-04-09T02:05:50.641Z,94903.94
2024-04-09T02:08:17.722Z,94904.56
2024-04-09T02:10:44.776Z,94907.03
2024-04-09T02:13:11.844Z,94905.22
2024-04-09T02:15:39.344Z,94912.88
2024-04-09T02:18:06.822Z,94902.75
2024-04-09T02:20:35.130Z,94906.84
2024-04-09T02:23:02.228Z,94903.25
2024-04-09T02:25:29.304Z,94905.44
2024-04-09T02:27:56.337Z,94906.41
2024-04-09T02:30:23.435Z,94906.19
2024-04-09T02:32:50.559Z,94903.72
2024-04-09T02:35:21.390Z,94903.22
2024-04-09T02:37:48.646Z,94897.16
2024-04-09T02:40:18.866Z,94897.22
2024-04-09T02:42:46.307Z,94895.63
2024-04-09T02:45:13.496Z,94900.28
2024-04-09T02:47:41.148Z,94893.31
2024-04-09T02:50:08.489Z,94886.09
2024-04-09T02:52:35.667Z,94895.81
2024-04-09T02:55:03.168Z,94898.94
2024-04-09T02:57:32.526Z,94901.78
2024-04-09T03:00:02.651Z,94897.06
2024-04-09T03:02:30.684Z,94896.81
2024-04-09T03:04:57.744Z,94891.72
2024-04-09T03:07:24.829Z,94891.94
2024-04-09T03:09:51.847Z,94892.41
2024-04-09T03:12:19.176Z,94900.41
2024-04-09T03:14:46.279Z,94895.25
2024-04-09T03:17:13.345Z,94898.06
2024-04-09T03:19:41.686Z,94900.53
2024-04-09T03:22:08.780Z,94901.91
2024-04-09T03:24:36.365Z,94902.47
2024-04-09T03:27:03.719Z,94896.09
2024-04-09T03:29:30.920Z,94905.22
2024-04-09T03:31:58.390Z,94904.72
2024-04-09T03:34:25.501Z,94911.75
2024-04-09T03:36:52.791Z,94916.34
2024-04-09T03:39:20.829Z,94917.50
2024-04-09T03:41:47.914Z,94915.19
2024-04-09T03:44:15.281Z,94922.19
2024-04-09T03:46:43.488Z,94919.84
2024-04-09T03:49:11.503Z,94919.03
2024-04-09T03:51:38.735Z,94916.41
2024-04-09T03:54:05.906Z,94926.34
2024-04-09T03:56:33.114Z,94929.84
2024-04-09T03:59:00.604Z,94932.53
2024-04-09T04:01:27.668Z,94939.47
2024-04-09T04:03:54.877Z,94934.69
2024-04-09T04:06:22.136Z,94935.78
2024-04-09T04:08:49.279Z,94931.72
2024-04-09T04:11:16.486Z,94938.91
2024-04-09T04:13:43.601Z,94952.03
2024-04-09T04:16:13.816Z,94945.31
2024-04-09T04:18:44.658Z,94944.19
2024-04-09T04:21:16.600Z,94949.00
2024-04-09T04:23:44.703Z,94952.19
2024-04-09T04:26:15.127Z,94947.63
2024-04-09T04:28:43.695Z,94949.22
2024-04-09T04:31:16.432Z,94951.63
2024-04-09T04:33:45.463Z,94952.06
2024-04-09T04:36:16.417Z,94941.81
2024-04-09T04:38:45.356Z,94941.69
2024-04-09T04:41:12.891Z,94939.97
2024-04-09T04:43:40.992Z,94952.19
2024-04-09T04:46:08.909Z,94937.53
2024-04-09T04:48:36.770Z,94948.72
2024-04-09T04:51:05.040Z,94949.69
2024-04-09T04:53:41.293Z,94937.13
2024-04-09T04:56:08.483Z,94946.75
2024-04-09T04:58:36.133Z,94948.75
2024-04-09T05:01:03.377Z,94950.25
2024-04-09T05:03:30.618Z,94952.78
2024-04-09T05:06:06.485Z,94960.78
2024-04-09T05:08:34.292Z,94957.53
2024-04-09T05:11:08.184Z,94962.31
2024-04-09T05:13:35.310Z,94963.03
2024-04-09T05:16:02.507Z,94968.41
2024-04-09T05:18:29.948Z,94962.94
2024-04-09T05:20:57.232Z,94955.31
2024-04-09T05:23:24.466Z,94958.22
2024-04-09T05:25:51.916Z,94949.25
2024-04-09T05:28:19.021Z,94947.75
2024-04-09T05:30:46.655Z,94954.06
2024-04-09T05:33:14.039Z,94947.94
2024-04-09T05:35:42.366Z,94954.72
2024-04-09T05:38:09.604Z,94951.47
2024-04-09T05:40:37.443Z,94950.56
2024-04-09T05:43:04.827Z,94948.38
2024-04-09T05:45:38.404Z,94939.41
2024-04-09T05:48:06.798Z,94944.75
2024-04-09T05:50:34.139Z,94940.25
2024-04-09T05:53:01.231Z,94943.84
2024-04-09T05:55:28.308Z,94947.13
2024-04-09T05:57:58.451Z,94942.88
2024-04-09T06:00:25.791Z,94943.47
2024-04-09T06:02:55.120Z,94952.78
2024-04-09T06:05:22.260Z,94957.44
2024-04-09T06:07:49.870Z,94951.44
2024-04-09T06:10:19.536Z,94958.16
2024-04-09T06:12:46.959Z,94951.78
2024-04-09T06:15:14.467Z,94953.16
2024-04-09T06:17:42.116Z,94957.94
2024-04-09T06:20:11.450Z,94951.94
2024-04-09T06:22:38.825Z,94950.09
2024-04-09T06:25:05.935Z,94953.47
2024-04-09T06:27:34.344Z,94954.44
2024-04-09T06:30:01.633Z,94951.78
2024-04-09T06:32:29.370Z,94944.88
2024-04-09T06:34:56.561Z,94951.97
2024-04-09T06:37:24.609Z,94957.88
2024-04-09T06:40:01.810Z,94959.00
2024-04-09T06:42:29.196Z,94957.56
2024-04-09T06:44:56.406Z,94958.06
2024-04-09T06:47:23.812Z,94955.13
2024-04-09T06:49:51.435Z,94951.81
2024-04-09T06:52:20.975Z,94952.47
2024-04-09T06:54:50.046Z,94953.78
2024-04-09T06:57:17.331Z,94948.88
2024-04-09T06:59:44.473Z,94942.19
2024-04-09T07:02:12.162Z,94945.72
2024-04-09T07:04:39.687Z,94951.13
2024-04-09T07:07:10.797Z,94944.63
2024-04-09T07:09:38.271Z,94943.19
2024-04-09T07:12:05.853Z,94947.50
2024-04-09T07:14:33.211Z,94934.34
2024-04-09T07:17:00.401Z,94931.78
2024-04-09T07:19:28.520Z,94935.91
2024-04-09T07:21:55.731Z,94934.16
2024-04-09T07:24:23.603Z,94936.06
2024-04-09T07:26:50.695Z,94936.84
2024-04-09T07:29:19.893Z,94935.03
2024-04-09T07:31:47.166Z,94935.38
2024-04-09T07:34:14.261Z,94936.63
2024-04-09T07:36:41.422Z,94931.78
2024-04-09T07:39:09.594Z,94936.66
2024-04-09T07:41:36.838Z,94934.25
2024-04-09T07:44:04.157Z,94930.00
2024-04-09T07:46:31.276Z,94926.91
2024-04-09T07:49:01.780Z,94930.56
2024-04-09T07:51:29.837Z,94927.91
2024-04-09T07:53:57.466Z,94927.22
2024-04-09T07:56:25.751Z,94926.22
2024-04-09T07:58:52.888Z,94920.56
2024-04-09T08:01:19.968Z,94921.16
2024-04-09T08:03:50.718Z,94907.53
2024-04-09T08:06:18.085Z,94911.75
2024-04-09T08:08:47.600Z,94909.25
2024-04-09T08:11:16.450Z,94907.06
2024-04-09T08:13:44.071Z,94906.22
2024-04-09T08:16:12.938Z,94902.25
2024-04-09T08:18:40.743Z,94894.81
2024-04-09T08:21:11.355Z,94896.03
2024-04-09T08:23:38.588Z,94894.00
2024-04-09T08:26:06.568Z,94890.41
2024-04-09T08:28:34.600Z,94883.31
2024-04-09T08:31:07.061Z,94882.28
2024-04-09T08:33:36.065Z,94885.00
2024-04-09T08:36:03.589Z,94885.91
2024-04-09T08:38:30.924Z,94884.78
2024-04-09T08:40:58.909Z,94876.81
2024-04-09T08:43:28.669Z,94872.94
2024-04-09T08:45:58.856Z,94873.81
2024-04-09T08:48:27.381Z,94852.22
2024-04-09T08:50:57.791Z,94860.47
2024-04-09T08:53:30.613Z,94861.19
2024-04-09T08:56:08.019Z,94856.22
2024-04-09T08:58:35.518Z,94844.19
2024-04-09T09:01:04.607Z,94845.00
2024-04-09T09:03:32.237Z,94844.66
2024-04-09T09:06:03.243Z,94853.94
2024-04-09T09:08:40.478Z,94850.06
2024-04-09T09:11:08.688Z,94849.88
2024-04-09T09:13:35.906Z,94843.66
2024-04-09T09:16:04.165Z,94842.41
2024-04-09T09:18:31.580Z,94834.97
2024-04-09T09:21:03.314Z,94841.56
2024-04-09T09:23:31.237Z,94829.28
2024-04-09T09:25:58.994Z,94830.84
2024-04-09T09:28:26.681Z,94825.38
2024-04-09T09:31:00.418Z,94827.97
2024-04-09T09:33:31.449Z,94819.72
2024-04-09T09:35:59.550Z,94812.78
2024-04-09T09:38:30.444Z,94813.88
2024-04-09T09:40:58.810Z,94815.19
2024-04-09T09:43:27.969Z,94805.63
2024-04-09T09:45:55.866Z,94796.50
2024-04-09T09:48:26.489Z,94790.38
2024-04-09T09:50:54.656Z,94791.41
2024-04-09T09:53:25.390Z,94794.91
2024-04-09T09:55:55.627Z,94786.63
2024-04-09T09:58:29.008Z,94789.25
2024-04-09T10:00:58.997Z,94787.13
2024-04-09T10:03:27.756Z,94778.72
2024-04-09T10:05:55.519Z,94779.69
2024-04-09T10:08:23.625Z,94781.84
2024-04-09T10:10:54.015Z,94783.97
2024-04-09T10:13:27.541Z,94772.66
2024-04-09T10:15:59.352Z,94778.66
2024-04-09T10:18:33.847Z,94774.03
2024-04-09T10:21:01.278Z,94767.09
2024-04-09T10:23:28.438Z,94761.66
2024-04-09T10:26:02.226Z,94758.59
2024-04-09T10:28:34.091Z,94760.59
2024-04-09T10:31:04.589Z,94746.13
2024-04-09T10:33:35.299Z,94750.44
2024-04-09T10:36:07.739Z,94737.84
2024-04-09T10:38:37.911Z,94742.19
2024-04-09T10:41:05.763Z,94733.09
2024-04-09T10:43:38.310Z,94731.50
2024-04-09T10:46:13.213Z,94733.00
2024-04-09T10:48:43.353Z,94730.63
2024-04-09T10:51:12.223Z,94721.47
2024-04-09T10:53:42.435Z,94722.13
2024-04-09T10:56:10.320Z,94720.81
2024-04-09T10:58:41.609Z,94720.28
2024-04-09T11:01:14.977Z,94716.94
2024-04-09T11:03:43.154Z,94708.91
2024-04-09T11:06:15.074Z,94714.78
2024-04-09T11:08:42.370Z,94707.81
2024-04-09T11:11:10.478Z,94701.97
2024-04-09T11:13:42.270Z,94700.09
2024-04-09T11:16:18.239Z,94690.06
2024-04-09T11:18:59.465Z,94692.75
2024-04-09T11:21:29.405Z,94686.22
2024-04-09T11:23:57.528Z,94677.22
2024-04-09T11:26:25.269Z,94683.72
2024-04-09T11:28:53.808Z,94676.03
2024-04-09T11:31:22.660Z,94671.09
2024-04-09T11:33:53.044Z,94671.50
2024-04-09T11:36:27.484Z,94658.81
2024-04-09T11:39:00.224Z,94651.09
2024-04-09T11:41:27.908Z,94648.47
2024-04-09T11:44:00.563Z,94650.34
2024-04-09T11:46:28.285Z,94644.78
2024-04-09T11:48:58.561Z,94642.13
2024-04-09T11:51:28.064Z,94640.09
2024-04-09T11:53:55.229Z,94635.84
2024-04-09T11:56:22.413Z,94632.69
2024-04-09T11:58:49.574Z,94630.53
2024-04-09T12:01:18.362Z,94629.41
2024-04-09T12:03:45.819Z,94620.53
2024-04-09T12:06:14.199Z,94623.88
2024-04-09T12:08:41.634Z,94615.75
2024-04-09T12:11:10.032Z,94624.78
2024-04-09T12:13:37.673Z,94614.19
2024-04-09T12:16:05.255Z,94606.09
2024-04-09T12:18:33.524Z,94600.66
2024-04-09T12:21:00.946Z,94595.03
2024-04-09T12:23:28.011Z,94603.06
2024-04-09T12:25:55.590Z,94598.53
2024-04-09T12:28:22.806Z,94600.00
2024-04-09T12:30:50.216Z,94592.75
2024-04-09T12:33:20.809Z,94582.81
2024-04-09T12:35:48.078Z,94589.38
2024-04-09T12:38:15.860Z,94581.25
2024-04-09T12:40:43.188Z,94583.47
2024-04-09T12:43:13.257Z,94574.88
2024-04-09T12:45:40.246Z,94574.56
2024-04-09T12:48:07.976Z,94568.81
2024-04-09T12:50:35.554Z,94571.25
2024-04-09T12:53:02.828Z,94565.72
2024-04-09T12:55:30.169Z,94565.00
2024-04-09T12:57:57.386Z,94557.56
2024-04-09T13:00:48.745Z,94560.69
2024-04-09T13:03:16.085Z,94546.19
2024-04-09T13:05:43.817Z,94551.88
2024-04-09T13:08:11.238Z,94555.28
2024-04-09T13:10:38.827Z,94531.13
2024-04-09T13:13:06.462Z,94539.53
2024-04-09T13:16:47.789Z,94527.28
2024-04-09T13:18:21.368Z,94532.84
2024-04-09T13:20:48.556Z,94530.66
2024-04-09T13:23:16.334Z,94528.94
2024-04-09T13:25:44.076Z,94526.19
2024-04-09T13:28:11.397Z,94530.06
2024-04-09T13:30:39.629Z,94524.06
2024-04-09T13:33:06.736Z,94527.88
2024-04-09T13:35:34.453Z,94518.28
2024-04-09T13:38:02.212Z,94519.09
2024-04-09T13:40:33.485Z,94520.84
2024-04-09T13:43:00.743Z,94524.09
2024-04-09T13:45:30.711Z,94518.34
2024-04-09T13:47:58.394Z,94518.63
2024-04-09T13:50:25.753Z,94519.13
2024-04-09T13:52:54.048Z,94522.69
2024-04-09T13:55:22.430Z,94510.09
2024-04-09T13:57:49.733Z,94519.41
2024-04-09T14:00:17.556Z,94522.22
2024-04-09T14:02:45.375Z,94508.84
2024-04-09T14:05:13.003Z,94512.28
2024-04-09T14:07:40.781Z,94506.81
2024-04-09T14:10:08.456Z,94499.25
2024-04-09T14:12:35.663Z,94500.09
2024-04-09T14:15:02.846Z,94496.16
2024-04-09T14:17:37.139Z,94489.59
2024-04-09T14:20:10.329Z,94492.03
2024-04-09T14:22:38.081Z,94491.97
2024-04-09T14:25:10.069Z,94486.13
2024-04-09T14:27:37.495Z,94483.72
2024-04-09T14:30:09.697Z,94481.47
2024-04-09T14:32:37.045Z,94482.97
2024-04-09T14:35:04.813Z,94476.81
2024-04-09T14:37:32.075Z,94483.50
2024-04-09T14:39:59.167Z,94481.59
2024-04-09T14:42:26.210Z,94483.75
2024-04-09T14:44:53.347Z,94480.38
2024-04-09T14:47:20.461Z,94467.59
2024-04-09T14:49:47.821Z,94472.34
2024-04-09T14:52:15.378Z,94467.84
2024-04-09T14:54:42.758Z,94469.28
2024-04-09T14:57:09.845Z,94470.16
2024-04-09T14:59:38.270Z,94463.53
2024-04-09T15:02:05.453Z,94458.69
2024-04-09T15:04:32.611Z,94463.81
2024-04-09T15:07:01.036Z,94462.47
2024-04-09T15:09:28.090Z,94464.00
2024-04-09T15:11:55.276Z,94458.13
2024-04-09T15:14:22.459Z,94464.25
2024-04-09T15:16:50.065Z,94456.41
2024-04-09T15:19:17.201Z,94458.06
2024-04-09T15:21:44.365Z,94445.22
2024-04-09T15:24:13.578Z,94455.78
2024-04-09T15:26:40.885Z,94454.97
2024-04-09T15:29:08.788Z,94450.22
2024-04-09T15:31:36.589Z,94449.16
2024-04-09T15:34:03.833Z,94449.47
2024-04-09T15:36:32.431Z,94456.28
2024-04-09T15:38:59.998Z,94441.34
2024-04-09T15:41:28.412Z,94453.28
2024-04-09T15:43:55.561Z,94456.63
2024-04-09T15:46:23.371Z,94453.75
2024-04-09T15:48:50.989Z,94446.69
2024-04-09T15:51:18.465Z,94442.50
2024-04-09T15:53:48.862Z,94443.50
2024-04-09T15:56:16.742Z,94445.31
2024-04-09T15:58:44.181Z,94444.63
2024-04-09T16:01:12.358Z,94440.00
2024-04-09T16:03:44.462Z,94447.72
2024-04-09T16:06:11.912Z,94448.75
2024-04-09T16:08:39.414Z,94445.22
2024-04-09T16:11:08.129Z,94451.22
2024-04-09T16:13:35.232Z,94456.63
2024-04-09T16:16:07.303Z,94450.91
2024-04-09T16:18:35.459Z,94452.84
2024-04-09T16:21:04.589Z,94457.22
2024-04-09T16:23:33.926Z,94454.88
2024-04-09T16:26:06.410Z,94453.25
2024-04-09T16:28:33.676Z,94459.81
2024-04-09T16:31:02.686Z,94458.38
2024-04-09T16:33:30.901Z,94456.91
2024-04-09T16:35:58.998Z,94459.63
2024-04-09T16:38:27.675Z,94466.06
2024-04-09T16:40:56.163Z,94466.22
2024-04-09T16:43:23.242Z,94462.81
2024-04-09T16:45:50.473Z,94461.38
2024-04-09T16:48:17.748Z,94466.25
2024-04-09T16:50:46.837Z,94460.38
2024-04-09T16:53:14.925Z,94470.47
2024-04-09T16:55:42.115Z,94474.75
2024-04-09T16:58:09.534Z,94479.06
2024-04-09T17:00:37.082Z,94476.84
2024-04-09T17:03:05.130Z,94484.41
2024-04-09T17:05:32.788Z,94480.31
2024-04-09T17:08:00.225Z,94480.59
2024-04-09T17:10:27.344Z,94490.81
2024-04-09T17:12:54.516Z,94491.81
2024-04-09T17:15:21.591Z,94496.44
2024-04-09T17:17:48.914Z,94502.53
2024-04-09T17:20:16.240Z,94513.38
2024-04-09T17:22:44.489Z,94511.13
2024-04-09T17:25:11.987Z,94514.41
2024-04-09T17:27:40.861Z,94520.44
2024-04-09T17:30:10.788Z,94521.41
2024-04-09T17:32:39.322Z,94525.78
2024-04-09T17:35:12.307Z,94531.31
2024-04-09T17:37:39.795Z,94536.06
2024-04-09T17:40:10.578Z,94538.03
2024-04-09T17:42:38.537Z,94542.75
2024-04-09T17:45:06.711Z,94548.66
2024-04-09T17:47:33.949Z,94547.06
2024-04-09T17:50:01.831Z,94537.59
2024-04-09T17:52:28.993Z,94549.38
2024-04-09T17:54:56.075Z,94545.03
2024-04-09T17:57:23.135Z,94541.50
2024-04-09T17:59:50.275Z,94543.03
2024-04-09T18:02:17.377Z,94546.16
2024-04-09T18:04:45.532Z,94545.34
2024-04-09T18:07:12.639Z,94545.31
2024-04-09T18:09:39.725Z,94551.56
2024-04-09T18:12:11.910Z,94548.75
2024-04-09T18:14:39.614Z,94553.78
2024-04-09T18:17:08.981Z,94549.06
2024-04-09T18:19:36.195Z,94548.97
2024-04-09T18:22:07.031Z,94556.69
2024-04-09T18:24:35.434Z,94552.63
2024-04-09T18:27:02.592Z,94557.31
2024-04-09T18:29:30.142Z,94561.19
2024-04-09T18:31:57.336Z,94561.88
2024-04-09T18:34:24.915Z,94564.94
2024-04-09T18:36:52.042Z,94558.97
2024-04-09T18:39:19.117Z,94560.13
2024-04-09T18:41:46.221Z,94571.00
2024-04-09T18:44:13.775Z,94580.28
2024-04-09T18:46:40.943Z,94580.03
2024-04-09T18:49:08.143Z,94586.09
2024-04-09T18:51:35.459Z,94580.03
2024-04-09T18:54:02.525Z,94572.56
2024-04-09T18:56:30.889Z,94580.53
2024-04-09T18:58:58.831Z,94578.84
2024-04-09T19:01:26.297Z,94575.97
2024-04-09T19:03:53.690Z,94587.25
2024-04-09T19:06:21.307Z,94581.25
2024-04-09T19:08:49.924Z,94586.25
2024-04-09T19:11:17.366Z,94587.34
2024-04-09T19:13:45.115Z,94590.09
2024-04-09T19:16:12.267Z,94587.88
2024-04-09T19:18:39.391Z,94588.97
2024-04-09T19:21:08.344Z,94585.53
2024-04-09T19:23:35.671Z,94588.16
2024-04-09T19:26:05.630Z,94591.03
2024-04-09T19:28:32.882Z,94597.53
2024-04-09T19:31:00.386Z,94601.00
2024-04-09T19:33:28.433Z,94601.34
2024-04-09T19:35:55.607Z,94598.56
2024-04-09T19:38:22.778Z,94610.22
2024-04-09T19:40:49.931Z,94600.69
2024-04-09T19:43:32.848Z,94603.78
2024-04-09T19:46:05.607Z,94608.31
2024-04-09T19:48:32.785Z,94605.16
2024-04-09T19:50:59.922Z,94600.78
2024-04-09T19:53:35.555Z,94609.53
2024-04-09T19:56:13.256Z,94602.94
2024-04-09T19:58:40.391Z,94609.13
2024-04-09T20:01:08.822Z,94611.19
2024-04-09T20:03:36.169Z,94614.69
2024-04-09T20:06:05.552Z,94614.34
2024-04-09T20:08:32.776Z,94620.97
2024-04-09T20:11:02.166Z,94612.91
2024-04-09T20:13:29.496Z,94624.75
2024-04-09T20:15:56.842Z,94624.94
2024-04-09T20:18:26.673Z,94626.09
2024-04-09T20:20:53.895Z,94623.78
2024-04-09T20:23:21.211Z,94631.97
2024-04-09T20:25:58.586Z,94632.75
2024-04-09T20:28:25.929Z,94634.25
2024-04-09T20:30:54.153Z,94636.56
2024-04-09T20:33:21.540Z,94635.53
2024-04-09T20:35:48.899Z,94639.94
2024-04-09T20:38:16.976Z,94639.09
2024-04-09T20:40:44.778Z,94647.44
2024-04-09T20:43:11.815Z,94652.34
2024-04-09T20:45:40.091Z,94657.91
2024-04-09T20:48:07.680Z,94659.56
2024-04-09T20:50:34.953Z,94662.78
2024-04-09T20:53:02.096Z,94664.31
2024-04-09T20:55:29.176Z,94657.06
2024-04-09T20:57:56.214Z,94661.47
2024-04-09T21:00:23.314Z,94661.28
2024-04-09T21:02:50.411Z,94667.41
2024-04-09T21:05:17.573Z,94663.53
2024-04-09T21:07:44.683Z,94659.44
2024-04-09T21:10:17.788Z,94666.25
2024-04-09T21:12:45.990Z,94661.72
2024-04-09T21:15:15.668Z,94669.53
2024-04-09T21:17:43.286Z,94669.78
2024-04-09T21:20:10.715Z,94667.84
2024-04-09T21:22:37.881Z,94668.94
2024-04-09T21:25:05.712Z,94667.56
2024-04-09T21:27:32.835Z,94668.25
2024-04-09T21:30:00.817Z,94671.19
2024-04-09T21:32:28.079Z,94674.59
2024-04-09T21:34:56.925Z,94678.44
2024-04-09T21:37:24.086Z,94679.75
2024-04-09T21:39:51.175Z,94686.09
2024-04-09T21:42:18.323Z,94683.16
2024-04-09T21:44:45.387Z,94683.34
2024-04-09T21:47:12.556Z,94680.63
2024-04-09T21:49:39.800Z,94687.78
2024-04-09T21:52:07.060Z,94678.81
2024-04-09T21:54:36.691Z,94678.31
2024-04-09T21:57:05.122Z,94676.25
2024-04-09T21:59:32.283Z,94678.53
2024-04-09T22:01:59.401Z,94677.34
2024-04-09T22:04:26.635Z,94675.03
2024-04-09T22:06:54.224Z,94675.44
2024-04-09T22:09:24.317Z,94681.03
2024-04-09T22:11:51.620Z,94683.97
2024-04-09T22:14:19.020Z,94684.63
2024-04-09T22:16:47.158Z,94685.63
2024-04-09T22:19:15.102Z,94677.53
2024-04-09T22:21:42.842Z,94687.19
2024-04-09T22:24:10.223Z,94681.22
2024-04-09T22:26:37.658Z,94686.09
2024-04-09T22:29:04.845Z,94689.78
2024-04-09T22:31:31.904Z,94683.75
2024-04-09T22:33:59.048Z,94680.47
2024-04-09T22:36:26.227Z,94684.00
2024-04-09T22:38:53.316Z,94676.25
2024-04-09T22:41:20.426Z,94667.34
2024-04-09T22:43:47.711Z,94669.44
2024-04-09T22:46:14.833Z,94673.28
2024-04-09T22:48:42.079Z,94664.66
2024-04-09T22:51:09.494Z,94672.28
2024-04-09T22:53:39.152Z,94674.69
2024-04-09T22:56:06.773Z,94671.34
2024-04-09T22:58:34.027Z,94676.34
2024-04-09T23:01:08.507Z,94679.19
2024-04-09T23:05:13.901Z,94673.19
2024-04-09T23:07:41.337Z,94668.44
2024-04-09T23:10:09.701Z,94672.25
2024-04-09T23:12:37.004Z,94673.06
2024-04-09T23:15:04.669Z,94669.72
2024-04-09T23:17:32.037Z,94665.91
2024-04-09T23:19:59.658Z,94674.81
2024-04-09T23:22:27.029Z,94672.94
2024-04-09T23:24:54.473Z,94665.16
2024-04-09T23:27:21.808Z,94661.66
2024-04-09T23:29:49.880Z,94666.13
2024-04-09T23:32:17.440Z,94665.66
2024-04-09T23:34:44.915Z,94665.97
2024-04-09T23:37:12.193Z,94666.09
2024-04-09T23:39:39.418Z,94663.09
2024-04-09T23:42:06.481Z,94674.38
2024-04-09T23:44:37.177Z,94671.22
2024-04-09T23:47:04.844Z,94672.81
2024-04-09T23:49:32.178Z,94665.81
2024-04-09T23:51:59.274Z,94663.75
2024-04-09T23:54:26.379Z,94654.66
2024-04-09T23:56:53.676Z,94657.97
2024-04-09T23:59:20.833Z,94656.69
